KWRB/WRB METAR and TAF weather

Enter ICAO airport designator
Station Type Date Time Source
KWRB METAR 2018/12/15 19:56 UTC NOAA

KWRB 151956Z 32002KT 10SM BKN035 16/08 A2993 RMK SLPNO WND DATA ESTMD ALSTG ESTMD


Station Type Date Time Source
KWRB Decoded METAR 2018/12/15 19:56 UTC NOAA

Warner Robins Air Force Base, GA, United States (KWRB) 32-38N 083-36W
Dec 15, 2018 - 02:56 PM EST / 2018.12.15 1956 UTC
Wind: from the NW (320 degrees) at 2 MPH (2 KT):0
Visibility: 10 mile(s):0
Sky conditions: mostly cloudy
Temperature: 60 F (16 C)
Dew Point: 46 F (8 C)
Relative Humidity: 58%
Pressure (altimeter): 29.93 in. Hg (1013 hPa)
ob: KWRB 151956Z 32002KT 10SM BKN035 16/08 A2993 RMK SLPNO WND DATA ESTMD ALSTG ESTMD
cycle: 20

Station Type Date Time Source
KWRB TAF 2018/12/15 18:51 UTC NOAA

TAF TAF
AMD KWRB 151823Z 1518/1619 18009KT 9999 BKN045 QNH2991INS
BECMG 1522/1523 24009KT 9999 BKN020 QNH2999INS
BECMG 1605/1606 25006KT 8000 BR BKN015 QNH3002INS
BECMG 1614/1615 29012KT 9999 NSW BKN025 QNH3006INS TX20/1520Z TN07/1611Z


Example: see airport list